createdAt,value
2023-01-09T00:00:14.406Z,101619.88
2023-01-09T00:05:12.411Z,101629.50
2023-01-09T00:10:10.036Z,101622.50
2023-01-09T00:15:07.243Z,101625.97
2023-01-09T00:20:05.989Z,101627.00
2023-01-09T00:25:02.778Z,101622.63
2023-01-09T00:29:59.510Z,101630.56
2023-01-09T00:34:56.561Z,101630.53
2023-01-09T00:39:53.965Z,101628.78
2023-01-09T00:44:52.494Z,101627.94
2023-01-09T00:49:50.249Z,101627.88
2023-01-09T00:54:47.301Z,101619.13
2023-01-09T00:59:44.654Z,101619.50
2023-01-09T01:05:08.123Z,101615.25
2023-01-09T01:10:05.228Z,101614.13
2023-01-09T01:15:02.668Z,101609.50
2023-01-09T01:19:59.317Z,101596.84
2023-01-09T01:24:55.951Z,101579.75
2023-01-09T01:29:52.577Z,101582.13
2023-01-09T01:34:49.932Z,101551.63
2023-01-09T01:39:48.443Z,101579.69
2023-01-09T01:44:59.292Z,101541.56
2023-01-09T01:49:57.891Z,101552.00
2023-01-09T01:54:54.687Z,101539.84
2023-01-09T01:59:53.487Z,101560.56
2023-01-09T02:04:52.075Z,101536.44
2023-01-09T02:09:49.687Z,101537.25
2023-01-09T02:14:48.032Z,101522.81
2023-01-09T02:20:02.394Z,101521.13
2023-01-09T02:25:08.184Z,101514.28
2023-01-09T02:30:14.762Z,101507.31
2023-01-09T02:35:19.347Z,101500.28
2023-01-09T02:40:20.230Z,101498.31
2023-01-09T02:45:17.481Z,101497.53
2023-01-09T02:50:15.735Z,101495.06
2023-01-09T02:55:18.398Z,101499.28
2023-01-09T03:00:22.921Z,101467.38
2023-01-09T03:05:22.474Z,101478.81
2023-01-09T03:10:20.682Z,101483.13
2023-01-09T03:15:19.441Z,101458.84
2023-01-09T03:20:17.830Z,101477.91
2023-01-09T03:25:17.775Z,101470.13
2023-01-09T03:30:14.725Z,101484.84
2023-01-09T03:35:12.122Z,101485.72
2023-01-09T03:40:09.624Z,101485.72
2023-01-09T03:45:06.738Z,101494.19
2023-01-09T03:50:03.637Z,101502.09
2023-01-09T03:55:01.017Z,101505.41
2023-01-09T03:59:57.568Z,101499.44
2023-01-09T04:04:54.275Z,101509.94
2023-01-09T04:09:51.029Z,101503.06
2023-01-09T04:14:48.295Z,101507.34
2023-01-09T04:19:45.010Z,101493.47
2023-01-09T04:24:41.558Z,101507.41
2023-01-09T04:29:38.272Z,101491.81
2023-01-09T04:34:35.549Z,101517.81
2023-01-09T04:39:32.079Z,101521.28
2023-01-09T04:44:29.079Z,101524.75
2023-01-09T04:49:26.678Z,101523.91
2023-01-09T04:54:23.953Z,101545.53
2023-01-09T04:59:20.673Z,101548.16
2023-01-09T05:04:17.534Z,101532.53
2023-01-09T05:09:14.496Z,101541.22
2023-01-09T05:14:12.581Z,101539.50
2023-01-09T05:19:09.306Z,101539.47
2023-01-09T05:24:06.158Z,101524.72
2023-01-09T05:29:02.800Z,101524.75
2023-01-09T05:34:06.628Z,101522.16
2023-01-09T05:39:04.961Z,101524.72
2023-01-09T05:44:01.570Z,101515.19
2023-01-09T05:48:58.219Z,101514.34
2023-01-09T05:53:58.100Z,101516.94
2023-01-09T05:58:55.616Z,101515.22
2023-01-09T06:03:52.201Z,101508.25
2023-01-09T06:08:48.819Z,101507.38
2023-01-09T06:13:48.454Z,101497.84
2023-01-09T06:18:45.716Z,101493.53
2023-01-09T06:23:42.581Z,101493.50
2023-01-09T06:28:45.095Z,101489.19
2023-01-09T06:33:42.441Z,101490.03
2023-01-09T06:38:39.257Z,101497.81
2023-01-09T06:43:35.991Z,101490.91
2023-01-09T06:48:32.657Z,101483.97
2023-01-09T06:53:32.743Z,101489.16
2023-01-09T06:58:32.077Z,101469.19
2023-01-09T07:03:28.617Z,101497.81
2023-01-09T07:08:25.278Z,101494.41
2023-01-09T07:13:22.543Z,101488.31
2023-01-09T07:18:19.103Z,101491.78
2023-01-09T07:23:15.772Z,101490.03
2023-01-09T07:28:12.325Z,101486.63
2023-01-09T07:33:39.261Z,101476.16
2023-01-09T07:38:56.754Z,101465.75
2023-01-09T07:43:54.578Z,101470.13
2023-01-09T07:48:54.167Z,101444.97
2023-01-09T08:00:25.405Z,101441.28
2023-01-09T08:06:00.840Z,101447.41
2023-01-09T08:11:42.003Z,101443.97
2023-01-09T08:29:44.036Z,101448.44
2023-01-09T08:36:15.139Z,101452.78
2023-01-09T08:47:03.037Z,101448.47
2023-01-09T08:57:54.056Z,101407.75
2023-01-09T09:09:10.541Z,101401.66
2023-01-09T09:14:40.495Z,101385.22
2023-01-09T09:19:43.479Z,101386.06
2023-01-09T09:24:42.440Z,101381.75
2023-01-09T09:29:39.407Z,101374.84
2023-01-09T09:34:36.000Z,101378.31
2023-01-09T09:39:33.249Z,101380.88
2023-01-09T09:44:52.606Z,101381.72
2023-01-09T09:49:54.852Z,101379.09
2023-01-09T09:54:52.528Z,101373.00
2023-01-09T09:59:53.539Z,101372.09
2023-01-09T10:04:55.207Z,101363.41
2023-01-09T10:09:53.996Z,101365.97
2023-01-09T10:14:50.604Z,101364.25
2023-01-09T10:19:54.221Z,101336.47
2023-01-09T10:24:57.330Z,101344.19
2023-01-09T10:30:01.353Z,101332.88
2023-01-09T10:35:07.068Z,101339.88
2023-01-09T10:40:07.927Z,101325.22
2023-01-09T10:45:06.626Z,101321.88
2023-01-09T10:50:15.614Z,101309.00
2023-01-09T10:55:20.058Z,101306.31
2023-01-09T11:00:20.137Z,101291.47
2023-01-09T11:05:21.601Z,101281.97
2023-01-09T11:10:19.094Z,101297.47
2023-01-09T11:15:28.762Z,101299.09
2023-01-09T11:20:26.726Z,101283.53
2023-01-09T11:25:25.179Z,101273.91
2023-01-09T11:30:25.824Z,101272.03
2023-01-09T11:35:33.087Z,101257.22
2023-01-09T11:41:03.913Z,101253.78
2023-01-09T11:46:01.664Z,101235.69
2023-01-09T11:51:02.261Z,101226.97
2023-01-09T11:56:01.223Z,101225.09
2023-01-09T12:01:01.049Z,101197.38
2023-01-09T12:06:03.567Z,101216.34
2023-01-09T12:11:07.499Z,101201.50
2023-01-09T12:16:11.385Z,101195.66
2023-01-09T12:21:21.310Z,101185.19
2023-01-09T12:26:20.865Z,101178.31
2023-01-09T12:31:27.195Z,101177.41
2023-01-09T12:36:29.514Z,101168.69
2023-01-09T12:41:37.306Z,101177.25
2023-01-09T12:46:37.477Z,101172.91
2023-01-09T12:51:37.572Z,101155.69
2023-01-09T12:56:37.080Z,101151.75
2023-01-09T13:01:38.759Z,101139.56
2023-01-09T13:06:38.476Z,101129.09
2023-01-09T13:11:39.313Z,101122.25
2023-01-09T13:16:40.951Z,101119.72
2023-01-09T13:21:38.508Z,101109.47
2023-01-09T13:26:39.932Z,101116.25
2023-01-09T13:32:14.783Z,101110.41
2023-01-09T13:37:23.459Z,101123.50
2023-01-09T13:48:38.920Z,101118.78
2023-01-09T13:53:45.545Z,101120.34
2023-01-09T13:58:57.347Z,101125.53
2023-01-09T14:04:08.802Z,101098.72
2023-01-09T14:09:12.879Z,101103.66
2023-01-09T14:14:26.210Z,101100.09
2023-01-09T14:19:31.956Z,101091.38
2023-01-09T14:24:32.133Z,101104.34
2023-01-09T14:29:38.709Z,101101.47
2023-01-09T14:34:44.901Z,101068.28
2023-01-09T14:39:44.105Z,101056.72
2023-01-09T14:44:45.330Z,101043.00
2023-01-09T14:49:43.616Z,101038.84
2023-01-09T14:54:41.804Z,101058.00
2023-01-09T15:00:21.011Z,101043.38
2023-01-09T15:05:20.950Z,101036.50
2023-01-09T15:10:19.532Z,101034.69
2023-01-09T15:15:17.162Z,100995.81
2023-01-09T15:20:18.265Z,101021.63
2023-01-09T15:25:24.850Z,101013.72
2023-01-09T15:30:27.601Z,101017.13
2023-01-09T15:35:25.684Z,101003.38
2023-01-09T15:40:26.927Z,100977.53
2023-01-09T15:45:26.085Z,100992.72
2023-01-09T15:50:33.137Z,101009.31
2023-01-09T15:55:34.878Z,101014.59
2023-01-09T16:00:33.882Z,101015.31
2023-01-09T16:05:33.817Z,101014.56
2023-01-09T16:10:35.194Z,100995.16
2023-01-09T16:15:33.283Z,100988.19
2023-01-09T16:20:30.061Z,100968.16
2023-01-09T16:25:29.039Z,100971.44
2023-01-09T16:30:29.298Z,100956.63
2023-01-09T16:35:26.275Z,100940.50
2023-01-09T16:40:24.633Z,100943.78
2023-01-09T16:45:25.311Z,100930.69
2023-01-09T16:50:23.485Z,100929.75
2023-01-09T16:55:20.353Z,100931.81
2023-01-09T17:00:18.239Z,100946.88
2023-01-09T17:05:15.102Z,100937.47
2023-01-09T17:10:20.686Z,100942.47
2023-01-09T17:15:17.418Z,100933.53
2023-01-09T17:20:16.759Z,100918.53
2023-01-09T17:25:32.289Z,100918.56
2023-01-09T17:30:31.175Z,100922.38
2023-01-09T17:35:27.791Z,100917.41
2023-01-09T17:40:24.812Z,100924.31
2023-01-09T17:45:21.726Z,100928.91
2023-01-09T17:50:22.031Z,100942.00
2023-01-09T17:55:18.564Z,100908.94
2023-01-09T18:00:22.515Z,100923.38
2023-01-09T18:05:20.187Z,100920.81
2023-01-09T18:10:17.588Z,100909.38
2023-01-09T18:15:14.286Z,100905.84
2023-01-09T18:20:13.610Z,100891.09
2023-01-09T18:25:11.011Z,100880.88
2023-01-09T18:30:11.365Z,100868.84
2023-01-09T18:35:09.298Z,100861.16
2023-01-09T18:40:06.330Z,100848.03
2023-01-09T18:45:03.959Z,100839.50
2023-01-09T18:50:00.566Z,100822.53
2023-01-09T18:54:57.268Z,100821.03
2023-01-09T18:59:53.901Z,100823.59
2023-01-09T19:04:51.569Z,100820.22
2023-01-09T19:09:48.156Z,100808.09
2023-01-09T19:14:44.994Z,100798.56
2023-01-09T19:19:41.550Z,100796.06
2023-01-09T19:24:38.938Z,100792.72
2023-01-09T19:29:37.989Z,100786.69
2023-01-09T19:34:35.203Z,100782.56
2023-01-09T19:39:31.736Z,100769.44
2023-01-09T19:44:31.998Z,100769.50
2023-01-09T19:49:28.746Z,100761.38
2023-01-09T19:54:25.336Z,100753.50
2023-01-09T19:59:21.927Z,100747.03
2023-01-09T20:04:19.555Z,100750.34
2023-01-09T20:09:17.147Z,100747.06
2023-01-09T20:14:14.519Z,100726.31
2023-01-09T20:19:12.037Z,100724.66
2023-01-09T20:24:11.774Z,100716.06
2023-01-09T20:29:08.741Z,100704.75
2023-01-09T20:34:05.432Z,100724.19
2023-01-09T20:39:03.921Z,100714.38
2023-01-09T20:44:02.288Z,100708.84
2023-01-09T20:48:59.542Z,100702.88
2023-01-09T20:53:57.766Z,100701.75
2023-01-09T20:58:55.186Z,100706.78
2023-01-09T21:03:53.248Z,100706.72
2023-01-09T21:08:52.267Z,100706.72
2023-01-09T21:13:49.044Z,100699.09
2023-01-09T21:18:46.440Z,100704.53
2023-01-09T21:23:45.586Z,100708.63
2023-01-09T21:28:48.595Z,100710.34
2023-01-09T21:33:45.415Z,100679.25
2023-01-09T21:38:41.956Z,100690.19
2023-01-09T21:43:57.269Z,100681.50
2023-01-09T21:48:53.802Z,100681.84
2023-01-09T21:53:51.541Z,100685.41
2023-01-09T21:58:49.060Z,100690.50
2023-01-09T22:03:45.808Z,100674.75
2023-01-09T22:08:42.402Z,100679.78
2023-01-09T22:13:40.393Z,100657.06
2023-01-09T22:18:37.723Z,100643.22
2023-01-09T22:23:34.281Z,100634.00
2023-01-09T22:28:30.800Z,100621.03
2023-01-09T22:33:27.505Z,100613.28
2023-01-09T22:38:24.796Z,100593.22
2023-01-09T22:43:21.477Z,100601.16
2023-01-09T22:48:18.105Z,100604.78
2023-01-09T22:53:14.827Z,100603.91
2023-01-09T22:58:12.005Z,100594.28
2023-01-09T23:03:08.545Z,100597.09
2023-01-09T23:08:05.140Z,100587.31
2023-01-09T23:13:01.758Z,100582.34
2023-01-09T23:17:59.206Z,100577.00
2023-01-09T23:22:57.657Z,100574.50
2023-01-09T23:27:55.505Z,100558.59
2023-01-09T23:32:52.159Z,100575.25
2023-01-09T23:37:49.487Z,100561.03
2023-01-09T23:43:04.386Z,100548.91
2023-01-09T23:48:00.923Z,100544.91
2023-01-09T23:52:58.188Z,100532.75
2023-01-09T23:57:55.045Z,100545.78
